Time;durP1;ratioP1;P1;durP2;ratioP2;P2;SDS_P1;SDS_P2;PMS_P1;PMS_P2;Temp;Humidity;BMP_temperature;BMP_pressure;BME280_temperature;BME280_humidity;BME280_pressure;Samples;Min_cycle;Max_cycle;Signal;HPM_P1;HPM_P2
2023/09/17 00:00:58;;;;;;;4.80;4.40;;;;;;;;;;5064398;28;20204;-72
2023/09/17 00:03:24;;;;;;;4.43;4.20;;;;;;;;;;5066082;28;20195;-72
2023/09/17 00:05:50;;;;;;;4.95;4.55;;;;;;;;;;5064786;28;20289;-72
2023/09/17 00:08:18;;;;;;;4.65;4.35;;;;;;;;;;5062352;28;20204;-72
2023/09/17 00:10:45;;;;;;;4.40;4.10;;;;;;;;;;5070263;28;20287;-72
2023/09/17 00:13:12;;;;;;;4.22;4.03;;;;;;;;;;5062489;28;20625;-72
2023/09/17 00:15:38;;;;;;;4.65;4.20;;;;;;;;;;5062181;28;20346;-72
2023/09/17 00:18:06;;;;;;;5.00;4.70;;;;;;;;;;5070618;28;20204;-72
2023/09/17 00:20:33;;;;;;;8.48;4.88;;;;;;;;;;5062532;28;20201;-72
2023/09/17 00:23:00;;;;;;;4.65;4.35;;;;;;;;;;5064060;28;20304;-72
2023/09/17 00:25:26;;;;;;;7.07;4.47;;;;;;;;;;5065405;28;20208;-72
2023/09/17 00:27:52;;;;;;;5.00;4.60;;;;;;;;;;5065470;28;20231;-73
2023/09/17 00:30:19;;;;;;;4.53;4.22;;;;;;;;;;5062963;28;20204;-72
2023/09/17 00:32:45;;;;;;;4.43;4.22;;;;;;;;;;5062836;28;20212;-72
2023/09/17 00:35:13;;;;;;;5.00;4.50;;;;;;;;;;5070541;28;20224;-72
2023/09/17 00:37:40;;;;;;;4.93;4.53;;;;;;;;;;5062379;28;20204;-72
2023/09/17 00:40:09;;;;;;;5.30;4.90;;;;;;;;;;5073538;28;20282;-72
2023/09/17 00:42:36;;;;;;;4.40;4.20;;;;;;;;;;5065855;28;20196;-72
2023/09/17 00:45:02;;;;;;;5.00;4.72;;;;;;;;;;5064037;28;20664;-72
2023/09/17 00:47:29;;;;;;;5.78;4.60;;;;;;;;;;5062673;28;20202;-72
2023/09/17 00:49:55;;;;;;;5.47;5.13;;;;;;;;;;5063021;28;20696;-72
2023/09/17 00:52:23;;;;;;;5.30;4.93;;;;;;;;;;5065805;28;20204;-72
2023/09/17 00:54:50;;;;;;;5.20;4.75;;;;;;;;;;5057814;28;20217;-72
2023/09/17 00:57:16;;;;;;;5.40;5.00;;;;;;;;;;5061944;28;20685;-72
2023/09/17 00:59:43;;;;;;;5.20;4.80;;;;;;;;;;5061231;28;20217;-72
2023/09/17 01:02:09;;;;;;;8.68;4.97;;;;;;;;;;5064800;28;20204;-72
2023/09/17 01:04:36;;;;;;;5.28;4.78;;;;;;;;;;5065505;28;20203;-72
2023/09/17 01:07:04;;;;;;;5.32;4.82;;;;;;;;;;5063844;28;20200;-72
2023/09/17 01:09:32;;;;;;;5.22;4.82;;;;;;;;;;5062135;28;20232;-72
2023/09/17 01:12:00;;;;;;;4.90;4.70;;;;;;;;;;5062986;28;20200;-72
2023/09/17 01:14:26;;;;;;;4.97;4.72;;;;;;;;;;5065606;28;20196;-72
2023/09/17 01:16:54;;;;;;;5.47;5.13;;;;;;;;;;5064765;28;20700;-72
2023/09/17 01:19:23;;;;;;;5.35;4.90;;;;;;;;;;5061850;28;20665;-72
2023/09/17 01:21:50;;;;;;;5.35;4.95;;;;;;;;;;5062220;28;20205;-72
2023/09/17 01:24:21;;;;;;;5.43;5.05;;;;;;;;;;5070293;28;20201;-72
2023/09/17 01:26:57;;;;;;;4.93;4.70;;;;;;;;;;5069112;28;20216;-72
2023/09/17 01:29:25;;;;;;;5.43;5.03;;;;;;;;;;5061727;28;20251;-72
2023/09/17 01:31:51;;;;;;;5.22;4.93;;;;;;;;;;5061579;28;20201;-72
2023/09/17 01:34:17;;;;;;;5.22;4.93;;;;;;;;;;5069786;28;20193;-72
2023/09/17 01:36:45;;;;;;;5.70;5.30;;;;;;;;;;5061524;28;20565;-72
2023/09/17 01:39:14;;;;;;;5.68;5.18;;;;;;;;;;5063803;28;20301;-72
2023/09/17 01:41:41;;;;;;;5.40;5.07;;;;;;;;;;5064955;28;20200;-72
2023/09/17 01:44:09;;;;;;;5.35;4.70;;;;;;;;;;5062955;28;20205;-72
2023/09/17 01:46:36;;;;;;;4.93;4.63;;;;;;;;;;5060937;28;20220;-72
2023/09/17 01:49:03;;;;;;;5.30;5.00;;;;;;;;;;5062819;28;20201;-72
2023/09/17 01:51:30;;;;;;;7.53;5.35;;;;;;;;;;5064886;28;20295;-72
2023/09/17 01:53:56;;;;;;;5.75;4.85;;;;;;;;;;5064622;28;20664;-72
2023/09/17 01:56:23;;;;;;;6.10;5.65;;;;;;;;;;5061006;28;20224;-72
2023/09/17 01:58:49;;;;;;;5.75;5.35;;;;;;;;;;5061383;28;20212;-72
2023/09/17 02:01:17;;;;;;;5.03;4.63;;;;;;;;;;5063585;28;20212;-72
2023/09/17 02:03:43;;;;;;;5.90;5.50;;;;;;;;;;5064857;28;20208;-72
2023/09/17 02:06:10;;;;;;;5.63;4.97;;;;;;;;;;5062354;28;20219;-72
2023/09/17 02:08:36;;;;;;;5.57;5.15;;;;;;;;;;5061095;28;20583;-72
2023/09/17 02:11:05;;;;;;;5.40;4.95;;;;;;;;;;5061311;28;20664;-72
2023/09/17 02:13:31;;;;;;;5.72;5.35;;;;;;;;;;5064293;28;20522;-72
2023/09/17 02:15:57;;;;;;;5.95;5.55;;;;;;;;;;5063755;28;20591;-73
2023/09/17 02:18:26;;;;;;;8.65;5.32;;;;;;;;;;5060874;28;20201;-72
2023/09/17 02:20:52;;;;;;;5.55;5.15;;;;;;;;;;5060702;28;20207;-72
2023/09/17 02:23:19;;;;;;;6.05;5.55;;;;;;;;;;5063528;28;20209;-72
2023/09/17 02:25:45;;;;;;;5.93;5.53;;;;;;;;;;5063972;28;20239;-72
2023/09/17 02:28:13;;;;;;;5.63;5.22;;;;;;;;;;5062191;28;20204;-72
2023/09/17 02:30:39;;;;;;;8.50;5.63;;;;;;;;;;5060557;28;20732;-72
2023/09/17 02:33:06;;;;;;;5.72;5.15;;;;;;;;;;5061526;28;20205;-72
2023/09/17 02:35:34;;;;;;;5.90;5.40;;;;;;;;;;5059301;28;20319;-72
2023/09/17 02:38:01;;;;;;;7.30;5.32;;;;;;;;;;5060161;28;20673;-72
2023/09/17 02:40:27;;;;;;;6.25;5.65;;;;;;;;;;5063788;28;20200;-72
2023/09/17 02:42:53;;;;;;;5.05;4.72;;;;;;;;;;5064002;28;20209;-73
2023/09/17 02:45:20;;;;;;;5.43;4.85;;;;;;;;;;5061095;28;20220;-72
2023/09/17 02:47:46;;;;;;;5.88;5.47;;;;;;;;;;5059968;28;20561;-72
2023/09/17 02:50:13;;;;;;;5.57;5.18;;;;;;;;;;5061878;28;20259;-72
2023/09/17 02:52:40;;;;;;;5.90;5.50;;;;;;;;;;5063633;28;20198;-72
2023/09/17 02:55:08;;;;;;;5.70;5.32;;;;;;;;;;5062513;28;20223;-72
2023/09/17 02:57:34;;;;;;;5.72;5.22;;;;;;;;;;5060030;28;20239;-72
2023/09/17 03:00:00;;;;;;;5.60;5.20;;;;;;;;;;5060184;28;20200;-72
2023/09/17 03:02:27;;;;;;;6.22;5.63;;;;;;;;;;5068548;28;20205;-72
2023/09/17 03:04:56;;;;;;;6.03;5.53;;;;;;;;;;5059847;28;20772;-72
2023/09/17 03:07:22;;;;;;;6.18;5.68;;;;;;;;;;5062315;28;20251;-72
2023/09/17 03:09:50;;;;;;;6.00;5.47;;;;;;;;;;5063363;28;20200;-72
2023/09/17 03:12:16;;;;;;;5.85;5.32;;;;;;;;;;5061479;28;20207;-72
2023/09/17 03:14:42;;;;;;;5.60;5.20;;;;;;;;;;5059896;28;20211;-72
2023/09/17 03:17:09;;;;;;;5.70;5.18;;;;;;;;;;5059917;28;20617;-72
2023/09/17 03:19:35;;;;;;;5.90;5.40;;;;;;;;;;5063163;28;20197;-72
2023/09/17 03:22:02;;;;;;;6.40;5.28;;;;;;;;;;5062957;28;20204;-72
2023/09/17 03:24:28;;;;;;;5.30;4.80;;;;;;;;;;5062682;28;20688;-72
2023/09/17 03:26:56;;;;;;;5.38;4.97;;;;;;;;;;5062968;28;20212;-72
2023/09/17 03:29:24;;;;;;;5.68;5.38;;;;;;;;;;5060607;28;20212;-72
2023/09/17 03:31:50;;;;;;;7.75;5.63;;;;;;;;;;5059719;28;20265;-72
2023/09/17 03:34:16;;;;;;;5.90;5.50;;;;;;;;;;5061035;28;20208;-72
2023/09/17 03:36:43;;;;;;;5.47;5.07;;;;;;;;;;5062482;28;20224;-72
2023/09/17 03:39:09;;;;;;;5.72;5.30;;;;;;;;;;5062246;28;20204;-72
2023/09/17 03:41:39;;;;;;;6.13;5.70;;;;;;;;;;5059457;28;20739;-72
2023/09/17 03:44:09;;;;;;;6.25;5.65;;;;;;;;;;5059678;28;20216;-72
2023/09/17 03:46:36;;;;;;;5.78;5.38;;;;;;;;;;5059523;28;20217;-72
2023/09/17 03:49:03;;;;;;;6.22;5.70;;;;;;;;;;5059449;28;20237;-72
2023/09/17 03:51:30;;;;;;;5.90;5.40;;;;;;;;;;5067581;28;20197;-72
2023/09/17 03:53:56;;;;;;;5.80;5.18;;;;;;;;;;5059649;28;20209;-72
2023/09/17 03:56:24;;;;;;;5.53;5.13;;;;;;;;;;5061141;28;20221;-72
2023/09/17 03:58:51;;;;;;;5.60;5.20;;;;;;;;;;5062893;28;20207;-72
2023/09/17 04:01:19;;;;;;;5.47;5.05;;;;;;;;;;5062426;28;20215;-72
2023/09/17 04:03:45;;;;;;;5.82;5.50;;;;;;;;;;5070956;28;20337;-72
2023/09/17 04:06:12;;;;;;;5.45;5.05;;;;;;;;;;5069719;28;20220;-71
2023/09/17 04:08:38;;;;;;;5.35;4.90;;;;;;;;;;5067066;28;20197;-72
2023/09/17 04:11:05;;;;;;;5.00;4.70;;;;;;;;;;5064389;28;20204;-71
2023/09/17 04:13:31;;;;;;;5.78;5.13;;;;;;;;;;5068274;28;20201;-72
2023/09/17 04:15:58;;;;;;;5.10;4.80;;;;;;;;;;5058835;28;20217;-72
2023/09/17 04:18:25;;;;;;;6.45;5.93;;;;;;;;;;5061155;28;20208;-72
2023/09/17 04:20:52;;;;;;;6.32;5.38;;;;;;;;;;5062770;28;20204;-72
2023/09/17 04:23:18;;;;;;;6.93;5.97;;;;;;;;;;5061597;28;20197;-72
2023/09/17 04:25:45;;;;;;;6.53;5.90;;;;;;;;;;5059187;28;20308;-71
2023/09/17 04:28:11;;;;;;;5.78;5.45;;;;;;;;;;5059062;28;20205;-71
2023/09/17 04:30:37;;;;;;;6.45;5.85;;;;;;;;;;5062667;28;20196;-71
2023/09/17 04:33:04;;;;;;;5.60;5.20;;;;;;;;;;5062491;28;20235;-71
2023/09/17 04:35:31;;;;;;;6.43;5.70;;;;;;;;;;5062989;28;20231;-72
2023/09/17 04:37:58;;;;;;;5.80;5.40;;;;;;;;;;5062515;28;20217;-71
2023/09/17 04:40:28;;;;;;;6.15;5.65;;;;;;;;;;5064425;28;20201;-74
2023/09/17 04:42:54;;;;;;;7.90;5.30;;;;;;;;;;5065961;28;20211;-70
2023/09/17 04:45:31;;;;;;;6.22;5.72;;;;;;;;;;5064564;28;20704;-70
2023/09/17 04:47:57;;;;;;;5.55;5.05;;;;;;;;;;5068781;28;20265;-70
2023/09/17 04:50:24;;;;;;;5.82;5.32;;;;;;;;;;5064321;28;20290;-69
2023/09/17 04:52:51;;;;;;;6.00;5.53;;;;;;;;;;5062611;28;20205;-70
2023/09/17 04:55:17;;;;;;;5.85;5.32;;;;;;;;;;5062818;28;20681;-70
2023/09/17 04:57:44;;;;;;;5.35;4.95;;;;;;;;;;5065436;28;20220;-70
2023/09/17 05:00:11;;;;;;;5.60;5.30;;;;;;;;;;5065623;28;20196;-70
2023/09/17 05:02:38;;;;;;;5.47;5.18;;;;;;;;;;5065852;28;20287;-69
2023/09/17 05:05:06;;;;;;;5.63;5.05;;;;;;;;;;5065661;28;20281;-70
2023/09/17 05:07:32;;;;;;;5.38;4.97;;;;;;;;;;5062726;28;20204;-70
2023/09/17 05:10:00;;;;;;;5.43;5.03;;;;;;;;;;5062268;28;20201;-70
2023/09/17 05:12:26;;;;;;;6.00;5.50;;;;;;;;;;5063514;28;20212;-70
2023/09/17 05:14:53;;;;;;;6.22;5.30;;;;;;;;;;5060223;28;20233;-70
2023/09/17 05:17:19;;;;;;;5.13;4.72;;;;;;;;;;5062499;28;20389;-70
2023/09/17 05:19:45;;;;;;;5.55;5.15;;;;;;;;;;5065439;28;20207;-70
2023/09/17 05:22:11;;;;;;;4.68;4.38;;;;;;;;;;5065348;28;20196;-70
2023/09/17 05:24:38;;;;;;;5.60;5.10;;;;;;;;;;5065338;28;20197;-70
2023/09/17 05:27:05;;;;;;;5.90;5.28;;;;;;;;;;5064926;28;20197;-70
2023/09/17 05:29:32;;;;;;;5.97;5.43;;;;;;;;;;5063035;28;20207;-70
2023/09/17 05:31:58;;;;;;;5.40;4.90;;;;;;;;;;5062042;28;20209;-70
2023/09/17 05:34:24;;;;;;;6.10;5.63;;;;;;;;;;5062832;28;20207;-70
2023/09/17 05:36:50;;;;;;;7.53;5.00;;;;;;;;;;5064630;28;20700;-70
2023/09/17 05:39:17;;;;;;;5.10;4.68;;;;;;;;;;5065177;28;20201;-70
2023/09/17 05:41:43;;;;;;;6.50;5.88;;;;;;;;;;5061453;28;20211;-70
2023/09/17 05:44:11;;;;;;;5.75;5.25;;;;;;;;;;5061490;28;20201;-70
2023/09/17 05:46:37;;;;;;;5.60;5.30;;;;;;;;;;5063298;28;20217;-70
2023/09/17 05:49:03;;;;;;;5.63;5.22;;;;;;;;;;5065003;28;20204;-70
2023/09/17 05:51:29;;;;;;;6.00;5.57;;;;;;;;;;5063265;28;20204;-70
2023/09/17 05:53:56;;;;;;;6.30;5.70;;;;;;;;;;5061356;28;20680;-70
2023/09/17 05:56:22;;;;;;;5.78;5.38;;;;;;;;;;5061078;28;20221;-70
2023/09/17 05:58:48;;;;;;;6.35;5.75;;;;;;;;;;5065528;28;20207;-70
2023/09/17 06:01:16;;;;;;;6.15;5.75;;;;;;;;;;5065891;28;20579;-70
2023/09/17 06:03:42;;;;;;;6.57;5.50;;;;;;;;;;5065028;28;20203;-70
2023/09/17 06:06:09;;;;;;;5.75;5.35;;;;;;;;;;5064271;28;20224;-70
2023/09/17 06:08:35;;;;;;;6.25;5.75;;;;;;;;;;5062379;28;20202;-70
2023/09/17 06:11:01;;;;;;;5.60;5.20;;;;;;;;;;5060980;28;20209;-70
2023/09/17 06:13:27;;;;;;;6.47;5.60;;;;;;;;;;5061829;28;20627;-70
2023/09/17 06:15:54;;;;;;;6.35;5.80;;;;;;;;;;5063916;28;20224;-70
2023/09/17 06:18:21;;;;;;;6.30;5.78;;;;;;;;;;5064549;28;20212;-70
2023/09/17 06:20:48;;;;;;;8.55;6.00;;;;;;;;;;5060954;28;20201;-70
2023/09/17 06:23:14;;;;;;;6.60;5.75;;;;;;;;;;5060992;28;20212;-70
2023/09/17 06:25:40;;;;;;;6.90;6.40;;;;;;;;;;5062936;28;20717;-70
2023/09/17 06:28:08;;;;;;;7.85;6.82;;;;;;;;;;5064075;28;20283;-70
2023/09/17 06:30:34;;;;;;;8.98;6.65;;;;;;;;;;5062344;28;20206;-70
2023/09/17 06:33:01;;;;;;;10.23;6.13;;;;;;;;;;5060484;28;20654;-70
2023/09/17 06:35:28;;;;;;;6.88;6.13;;;;;;;;;;5060923;28;20217;-70
2023/09/17 06:37:55;;;;;;;8.45;6.68;;;;;;;;;;5063678;28;20227;-70
2023/09/17 06:40:21;;;;;;;7.03;6.43;;;;;;;;;;5063666;28;20200;-70
2023/09/17 06:42:48;;;;;;;8.13;6.75;;;;;;;;;;5063776;28;20579;-70
2023/09/17 06:45:14;;;;;;;7.13;6.43;;;;;;;;;;5063457;28;20716;-70
2023/09/17 06:47:40;;;;;;;7.43;6.93;;;;;;;;;;5060953;28;20188;-70
2023/09/17 06:50:07;;;;;;;7.55;7.00;;;;;;;;;;5060301;28;20208;-70
2023/09/17 06:52:35;;;;;;;7.10;6.40;;;;;;;;;;5061353;28;20197;-70
2023/09/17 06:55:01;;;;;;;9.77;7.28;;;;;;;;;;5063462;28;20466;-70
2023/09/17 06:57:27;;;;;;;9.38;8.60;;;;;;;;;;5060993;28;20477;-71
2023/09/17 06:59:54;;;;;;;13.55;12.25;;;;;;;;;;5059950;28;20704;-71
2023/09/17 07:02:20;;;;;;;14.43;13.00;;;;;;;;;;5060118;28;20251;-71
2023/09/17 07:04:47;;;;;;;22.90;19.02;;;;;;;;;;5062836;28;20200;-70
2023/09/17 07:07:13;;;;;;;30.60;24.27;;;;;;;;;;5063077;28;20266;-71
2023/09/17 07:09:41;;;;;;;23.10;20.90;;;;;;;;;;5055316;28;20287;-70
2023/09/17 07:12:08;;;;;;;21.08;18.98;;;;;;;;;;5063553;28;20204;-70
2023/09/17 07:14:34;;;;;;;16.65;14.95;;;;;;;;;;5062360;28;20208;-71
2023/09/17 07:17:00;;;;;;;11.98;10.85;;;;;;;;;;5064145;28;20602;-71
2023/09/17 07:19:27;;;;;;;10.35;9.40;;;;;;;;;;5063033;28;20200;-70
2023/09/17 07:21:53;;;;;;;8.85;7.35;;;;;;;;;;5059624;28;20685;-71
2023/09/17 07:24:19;;;;;;;7.43;6.72;;;;;;;;;;5059776;28;20203;-71
2023/09/17 07:26:47;;;;;;;11.25;5.95;;;;;;;;;;5061899;28;20221;-71
2023/09/17 07:29:13;;;;;;;6.07;5.32;;;;;;;;;;5062943;28;20687;-70
2023/09/17 07:31:41;;;;;;;5.50;5.20;;;;;;;;;;5061288;28;20223;-70
2023/09/17 07:34:07;;;;;;;5.07;4.80;;;;;;;;;;5059773;28;20193;-71
2023/09/17 07:36:34;;;;;;;5.55;5.13;;;;;;;;;;5067523;28;20310;-71
2023/09/17 07:39:00;;;;;;;5.82;5.43;;;;;;;;;;5059812;28;20193;-71
2023/09/17 07:41:26;;;;;;;5.60;5.20;;;;;;;;;;5059546;28;20665;-70
2023/09/17 07:43:54;;;;;;;5.72;5.20;;;;;;;;;;5067714;28;20201;-70
2023/09/17 07:46:20;;;;;;;5.35;4.88;;;;;;;;;;5059304;28;20221;-71
2023/09/17 07:48:47;;;;;;;5.68;5.15;;;;;;;;;;5061858;28;20197;-71
2023/09/17 07:51:13;;;;;;;5.53;5.13;;;;;;;;;;5063124;28;20253;-71
2023/09/17 07:53:40;;;;;;;5.65;5.25;;;;;;;;;;5061488;28;20672;-70
2023/09/17 07:56:06;;;;;;;5.88;5.35;;;;;;;;;;5059258;28;20223;-71
2023/09/17 07:58:32;;;;;;;5.28;4.85;;;;;;;;;;5059727;28;20209;-70
2023/09/17 08:01:00;;;;;;;4.72;4.32;;;;;;;;;;5063125;28;20235;-71
2023/09/17 08:03:26;;;;;;;5.50;5.00;;;;;;;;;;5055173;28;20197;-71
2023/09/17 08:05:52;;;;;;;5.20;5.00;;;;;;;;;;5067358;28;20225;-70
2023/09/17 08:08:19;;;;;;;5.38;4.90;;;;;;;;;;5059489;28;20192;-71
2023/09/17 08:10:46;;;;;;;5.20;4.80;;;;;;;;;;5065181;28;20206;-70
2023/09/17 08:13:12;;;;;;;4.70;4.50;;;;;;;;;;5066830;28;20207;-71
2023/09/17 08:15:39;;;;;;;5.30;4.65;;;;;;;;;;5065265;28;20231;-71
2023/09/17 08:18:07;;;;;;;4.55;4.20;;;;;;;;;;5062725;28;20241;-70
2023/09/17 08:20:33;;;;;;;6.88;4.70;;;;;;;;;;5063363;28;20220;-71
2023/09/17 08:22:59;;;;;;;6.95;4.20;;;;;;;;;;5066564;28;20227;-71
2023/09/17 08:25:27;;;;;;;4.50;4.18;;;;;;;;;;5066203;28;20596;-70
2023/09/17 08:27:53;;;;;;;4.35;4.05;;;;;;;;;;5063258;28;20200;-71
2023/09/17 08:30:20;;;;;;;4.72;4.32;;;;;;;;;;5063019;28;20201;-71
2023/09/17 08:32:46;;;;;;;4.70;4.30;;;;;;;;;;5065063;28;20568;-71
2023/09/17 08:35:14;;;;;;;4.72;4.43;;;;;;;;;;5066405;28;20216;-71
2023/09/17 08:37:41;;;;;;;4.40;4.00;;;;;;;;;;5064936;28;20215;-71
2023/09/17 08:40:10;;;;;;;4.20;3.90;;;;;;;;;;5062807;28;20669;-71
2023/09/17 08:42:36;;;;;;;4.90;4.40;;;;;;;;;;5062859;28;20665;-71
2023/09/17 08:45:04;;;;;;;5.00;4.20;;;;;;;;;;5065878;28;20216;-71
2023/09/17 08:47:31;;;;;;;4.05;3.85;;;;;;;;;;5065709;28;20732;-71
2023/09/17 08:49:57;;;;;;;4.10;3.90;;;;;;;;;;5065882;28;20208;-72
2023/09/17 08:52:26;;;;;;;3.80;3.60;;;;;;;;;;5065934;28;20607;-71
2023/09/17 08:54:53;;;;;;;3.90;3.70;;;;;;;;;;5063322;28;20601;-71
2023/09/17 08:57:22;;;;;;;3.55;3.25;;;;;;;;;;5062290;28;20196;-71
2023/09/17 08:59:50;;;;;;;4.00;3.70;;;;;;;;;;5063963;28;20212;-71
2023/09/17 09:02:20;;;;;;;4.53;3.47;;;;;;;;;;5065737;28;20199;-71
2023/09/17 09:04:50;;;;;;;4.05;3.75;;;;;;;;;;5064207;28;20207;-71
2023/09/17 09:07:17;;;;;;;4.38;3.35;;;;;;;;;;5067733;28;20196;-71
2023/09/17 09:09:46;;;;;;;5.70;3.40;;;;;;;;;;5064642;28;20211;-71
2023/09/17 09:12:12;;;;;;;6.45;4.97;;;;;;;;;;5062000;28;20208;-71
2023/09/17 09:14:40;;;;;;;4.50;4.10;;;;;;;;;;5062247;28;20196;-71
2023/09/17 09:17:06;;;;;;;3.85;3.65;;;;;;;;;;5064983;28;20664;-72
2023/09/17 09:19:32;;;;;;;5.88;4.10;;;;;;;;;;5065364;28;20303;-71
2023/09/17 09:21:59;;;;;;;4.32;3.35;;;;;;;;;;5064136;28;20736;-71
2023/09/17 09:24:29;;;;;;;3.22;3.10;;;;;;;;;;5065315;28;20230;-71
2023/09/17 09:26:58;;;;;;;3.65;3.35;;;;;;;;;;5064645;28;20220;-71
2023/09/17 09:29:25;;;;;;;3.88;3.30;;;;;;;;;;5065408;28;20191;-71
2023/09/17 09:31:51;;;;;;;3.83;3.40;;;;;;;;;;5063668;28;20280;-71
2023/09/17 09:34:18;;;;;;;3.53;3.20;;;;;;;;;;5061831;28;20201;-71
2023/09/17 09:36:45;;;;;;;3.47;3.22;;;;;;;;;;5061857;28;20327;-71
2023/09/17 09:39:14;;;;;;;3.83;3.47;;;;;;;;;;5065005;28;20227;-71
2023/09/17 09:41:41;;;;;;;3.78;3.13;;;;;;;;;;5064688;28;20196;-71
2023/09/17 09:44:09;;;;;;;3.55;3.13;;;;;;;;;;5061715;28;20197;-71
2023/09/17 09:46:36;;;;;;;4.78;2.85;;;;;;;;;;5061363;28;20213;-71
2023/09/17 09:49:03;;;;;;;6.60;3.55;;;;;;;;;;5069690;28;20204;-71
2023/09/17 09:51:29;;;;;;;7.75;3.30;;;;;;;;;;5061426;28;20204;-71
2023/09/17 09:53:56;;;;;;;3.75;2.90;;;;;;;;;;5063287;28;20228;-71
2023/09/17 09:56:27;;;;;;;4.22;3.13;;;;;;;;;;5064272;28;20573;-71
2023/09/17 09:58:54;;;;;;;3.55;2.90;;;;;;;;;;5062866;28;20699;-71
2023/09/17 10:01:22;;;;;;;4.70;2.85;;;;;;;;;;5061253;28;20200;-71
2023/09/17 10:03:50;;;;;;;3.97;2.97;;;;;;;;;;5061996;28;20580;-71
2023/09/17 10:06:17;;;;;;;8.02;2.70;;;;;;;;;;5063972;28;20253;-71
2023/09/17 10:08:43;;;;;;;3.33;2.97;;;;;;;;;;5064380;28;20200;-71
2023/09/17 10:11:10;;;;;;;5.95;2.78;;;;;;;;;;5061163;28;20204;-71
2023/09/17 10:13:36;;;;;;;2.97;2.38;;;;;;;;;;5060926;28;20568;-71
2023/09/17 10:16:03;;;;;;;4.35;2.60;;;;;;;;;;5063167;28;20231;-71
2023/09/17 10:18:32;;;;;;;7.43;2.85;;;;;;;;;;5066034;28;20209;-71
2023/09/17 10:20:59;;;;;;;7.93;2.72;;;;;;;;;;5062587;28;20253;-71
2023/09/17 10:23:27;;;;;;;3.05;2.60;;;;;;;;;;5064345;28;20196;-71
2023/09/17 10:25:55;;;;;;;6.72;2.42;;;;;;;;;;5062497;28;20304;-71
2023/09/17 10:28:22;;;;;;;4.07;2.30;;;;;;;;;;5060809;28;20193;-72
2023/09/17 10:30:51;;;;;;;6.03;2.50;;;;;;;;;;5061087;28;20227;-72
2023/09/17 10:33:18;;;;;;;4.28;2.22;;;;;;;;;;5063904;28;20192;-72
2023/09/17 10:35:46;;;;;;;5.97;2.40;;;;;;;;;;5063562;28;20228;-71
2023/09/17 10:38:12;;;;;;;8.45;2.30;;;;;;;;;;5068111;28;20719;-71
2023/09/17 10:40:39;;;;;;;13.35;2.30;;;;;;;;;;5060530;28;20203;-71
2023/09/17 10:43:06;;;;;;;4.00;2.33;;;;;;;;;;5063086;28;20207;-71
2023/09/17 10:45:34;;;;;;;4.20;2.00;;;;;;;;;;5063600;28;20895;-71
2023/09/17 10:48:02;;;;;;;5.57;2.33;;;;;;;;;;5061495;28;20203;-71
2023/09/17 10:50:28;;;;;;;6.03;2.20;;;;;;;;;;5060337;28;20546;-71
2023/09/17 10:52:56;;;;;;;7.47;2.50;;;;;;;;;;5061435;28;20215;-71
2023/09/17 10:55:22;;;;;;;6.78;2.10;;;;;;;;;;5063570;28;20219;-71
2023/09/17 10:57:54;;;;;;;6.32;2.05;;;;;;;;;;5062925;28;20211;-71
2023/09/17 11:00:23;;;;;;;8.55;2.42;;;;;;;;;;5064789;28;20254;-71
2023/09/17 11:02:52;;;;;;;4.75;2.13;;;;;;;;;;5063134;28;20231;-71
2023/09/17 11:05:20;;;;;;;6.68;2.22;;;;;;;;;;5059784;28;20646;-71
2023/09/17 11:07:46;;;;;;;4.40;2.20;;;;;;;;;;5059889;28;20205;-71
2023/09/17 11:10:15;;;;;;;5.75;2.15;;;;;;;;;;5063468;28;20234;-71
2023/09/17 11:12:41;;;;;;;11.07;2.25;;;;;;;;;;5063346;28;20223;-71
2023/09/17 11:15:08;;;;;;;3.90;1.73;;;;;;;;;;5060006;28;20258;-71
2023/09/17 11:17:35;;;;;;;5.10;2.10;;;;;;;;;;5059841;28;20223;-71
2023/09/17 11:20:07;;;;;;;5.25;1.70;;;;;;;;;;5061539;28;20259;-71
2023/09/17 11:22:35;;;;;;;7.35;2.50;;;;;;;;;;5063238;28;20610;-71
2023/09/17 11:25:03;;;;;;;4.60;2.20;;;;;;;;;;5061278;28;20703;-71
2023/09/17 11:30:24;;;;;;;4.05;2.10;;;;;;;;;;5109430;27;21082;-71
2023/09/17 11:32:51;;;;;;;6.57;2.00;;;;;;;;;;5109501;28;20194;-71
2023/09/17 11:35:19;;;;;;;4.40;1.75;;;;;;;;;;5109166;28;20214;-71
2023/09/17 11:37:46;;;;;;;7.80;1.98;;;;;;;;;;5109147;28;20203;-71
2023/09/17 11:40:12;;;;;;;8.13;1.88;;;;;;;;;;5109015;28;20187;-71
2023/09/17 11:42:40;;;;;;;5.32;2.10;;;;;;;;;;5108990;28;20608;-71
2023/09/17 11:45:07;;;;;;;5.57;2.10;;;;;;;;;;5108919;28;20225;-71
2023/09/17 11:47:35;;;;;;;5.82;1.80;;;;;;;;;;5108636;28;20591;-71
2023/09/17 11:50:03;;;;;;;4.65;1.60;;;;;;;;;;5108666;28;20725;-71
2023/09/17 11:52:30;;;;;;;7.20;2.05;;;;;;;;;;5109051;28;20218;-71
2023/09/17 11:55:03;;;;;;;4.03;2.10;;;;;;;;;;5108521;28;20596;-71
2023/09/17 11:57:29;;;;;;;9.05;2.30;;;;;;;;;;5108492;28;20201;-71
2023/09/17 11:59:56;;;;;;;5.15;2.15;;;;;;;;;;5108592;28;20585;-71
2023/09/17 12:02:23;;;;;;;6.22;1.73;;;;;;;;;;5108920;28;20248;-71
2023/09/17 12:04:52;;;;;;;5.45;1.60;;;;;;;;;;5108763;28;20198;-71
2023/09/17 12:07:18;;;;;;;8.45;1.77;;;;;;;;;;5108254;28;20191;-71
2023/09/17 12:09:58;;;;;;;8.18;2.10;;;;;;;;;;5108829;28;20214;-71
2023/09/17 12:12:24;;;;;;;7.00;2.00;;;;;;;;;;5101088;28;20678;-71
2023/09/17 12:14:51;;;;;;;4.88;2.00;;;;;;;;;;5108428;28;20572;-71
2023/09/17 12:17:17;;;;;;;4.10;1.60;;;;;;;;;;5108138;28;20597;-71
2023/09/17 12:19:45;;;;;;;3.08;1.70;;;;;;;;;;5108553;28;20213;-71
2023/09/17 12:22:13;;;;;;;4.15;2.05;;;;;;;;;;5108600;28;20202;-71
2023/09/17 12:24:44;;;;;;;7.57;1.80;;;;;;;;;;5108459;28;20218;-71
2023/09/17 12:27:19;;;;;;;4.40;1.60;;;;;;;;;;5108212;28;20207;-71
2023/09/17 12:29:45;;;;;;;6.68;1.75;;;;;;;;;;5108219;28;20242;-71
2023/09/17 12:32:12;;;;;;;5.40;1.77;;;;;;;;;;5108050;28;20627;-71
2023/09/17 12:34:38;;;;;;;5.78;2.20;;;;;;;;;;5108506;28;20451;-71
2023/09/17 12:37:05;;;;;;;5.63;1.80;;;;;;;;;;5107992;28;20198;-71
2023/09/17 12:39:33;;;;;;;4.05;1.83;;;;;;;;;;5107393;28;20191;-71
2023/09/17 12:41:59;;;;;;;4.32;2.00;;;;;;;;;;5093989;28;20202;-71
2023/09/17 12:44:26;;;;;;;4.35;1.70;;;;;;;;;;5094423;28;20191;-71
2023/09/17 12:46:53;;;;;;;4.65;1.83;;;;;;;;;;5093976;28;20306;-71
2023/09/17 12:49:21;;;;;;;9.43;1.98;;;;;;;;;;5094438;28;20486;-71
2023/09/17 12:51:47;;;;;;;4.10;1.52;;;;;;;;;;5094508;28;20200;-71
2023/09/17 12:54:14;;;;;;;5.45;2.05;;;;;;;;;;5094295;28;20200;-71
2023/09/17 12:56:42;;;;;;;4.57;1.85;;;;;;;;;;5094039;28;20219;-71
2023/09/17 12:59:08;;;;;;;3.92;1.83;;;;;;;;;;5094063;28;20198;-71
2023/09/17 13:01:34;;;;;;;5.70;1.90;;;;;;;;;;5094017;28;20579;-71
2023/09/17 13:04:02;;;;;;;10.05;2.03;;;;;;;;;;5094199;28;20273;-71
2023/09/17 13:06:30;;;;;;;4.75;1.45;;;;;;;;;;5093677;28;20643;-71
2023/09/17 13:08:56;;;;;;;4.85;1.92;;;;;;;;;;5094005;28;20242;-71
2023/09/17 13:11:25;;;;;;;5.82;1.77;;;;;;;;;;5093910;28;20199;-71
2023/09/17 13:13:54;;;;;;;2.75;1.60;;;;;;;;;;5093880;28;20568;-71
2023/09/17 13:16:21;;;;;;;5.65;1.48;;;;;;;;;;5093519;28;20625;-71
2023/09/17 13:18:48;;;;;;;5.50;1.90;;;;;;;;;;5093826;28;20659;-71
2023/09/17 13:21:14;;;;;;;5.80;1.85;;;;;;;;;;5093858;28;20195;-71
2023/09/17 13:23:42;;;;;;;6.47;1.75;;;;;;;;;;5093876;28;20191;-71
2023/09/17 13:26:09;;;;;;;6.30;1.70;;;;;;;;;;5093237;28;20215;-71
2023/09/17 13:28:36;;;;;;;3.35;1.65;;;;;;;;;;5093412;28;20264;-71
2023/09/17 13:31:05;;;;;;;4.18;1.60;;;;;;;;;;5093593;28;20237;-71
2023/09/17 13:33:31;;;;;;;4.65;1.48;;;;;;;;;;5093741;28;20191;-71
2023/09/17 13:35:58;;;;;;;5.63;1.38;;;;;;;;;;5093236;28;20251;-71
2023/09/17 13:38:25;;;;;;;7.53;1.70;;;;;;;;;;5093375;28;20706;-71
2023/09/17 13:40:52;;;;;;;5.68;1.73;;;;;;;;;;5093404;28;20682;-71
2023/09/17 13:43:19;;;;;;;3.95;1.55;;;;;;;;;;5093364;28;20238;-71
2023/09/17 13:45:51;;;;;;;3.55;1.50;;;;;;;;;;5093184;28;20616;-71
2023/09/17 13:48:19;;;;;;;7.80;1.98;;;;;;;;;;5093120;28;20210;-72
2023/09/17 13:50:46;;;;;;;2.58;1.20;;;;;;;;;;5093072;28;20746;-72
2023/09/17 13:53:12;;;;;;;5.43;1.50;;;;;;;;;;5092208;28;20207;-72
2023/09/17 13:55:39;;;;;;;4.00;1.38;;;;;;;;;;5092940;28;20226;-72
2023/09/17 13:58:05;;;;;;;5.47;1.90;;;;;;;;;;5093053;28;20202;-71
2023/09/17 14:00:31;;;;;;;3.85;1.50;;;;;;;;;;5093269;28;20553;-71
2023/09/17 14:03:00;;;;;;;4.13;1.52;;;;;;;;;;5093371;28;20207;-71
2023/09/17 14:05:28;;;;;;;6.53;1.40;;;;;;;;;;5092914;28;20211;-72
2023/09/17 14:07:54;;;;;;;3.55;1.38;;;;;;;;;;5092958;28;20199;-71
2023/09/17 14:10:20;;;;;;;5.00;1.38;;;;;;;;;;5092710;28;20223;-72
2023/09/17 14:12:47;;;;;;;5.40;1.50;;;;;;;;;;5093491;28;20199;-72
2023/09/17 14:15:13;;;;;;;2.83;1.58;;;;;;;;;;5092709;28;20612;-72
2023/09/17 14:17:39;;;;;;;4.10;1.70;;;;;;;;;;5092819;28;20212;-71
2023/09/17 14:20:06;;;;;;;3.22;1.30;;;;;;;;;;5092700;28;20195;-72
2023/09/17 14:22:34;;;;;;;8.95;1.70;;;;;;;;;;5084573;28;20282;-72
2023/09/17 14:25:01;;;;;;;3.67;1.58;;;;;;;;;;5092469;28;20219;-72
2023/09/17 14:27:27;;;;;;;1.88;1.35;;;;;;;;;;5092322;28;20214;-72
2023/09/17 14:29:54;;;;;;;9.07;1.55;;;;;;;;;;5092344;28;20626;-72
2023/09/17 14:32:22;;;;;;;3.10;1.38;;;;;;;;;;5092560;28;20195;-72
2023/09/17 14:34:48;;;;;;;4.63;1.60;;;;;;;;;;5092538;28;20200;-72
2023/09/17 14:37:15;;;;;;;4.63;1.80;;;;;;;;;;5092530;28;20211;-72
2023/09/17 14:39:42;;;;;;;3.28;1.25;;;;;;;;;;5092705;28;20228;-72
2023/09/17 14:42:09;;;;;;;4.00;1.33;;;;;;;;;;5092508;28;20202;-72
2023/09/17 14:44:35;;;;;;;6.22;1.40;;;;;;;;;;5092311;28;20207;-72